Moorefield, Nebraska
Current Conditions -  °F | °C
As of 7:15 PM on Friday 28 Nov 2014 (Local Time) from KLXN Reporting Station
Clear Clear  
Wind Chill: 47°   Ceiling: Unl
Heat Index: 50°   Visibility: 10mi
Dew Point: 17°   Wind: 8mph
Humidity: 28%   Direction: 260°W
Pressure: 29.67"   Gusts: NA
Location:  40.69°N, 100.4°W
Report Text: KLXN 290115Z AUTO 26007KT 10SM CLR 10/M08 A2967 RMK AO2 T00991081
Loading
Personal Weather Stations






























Interactive Weather Map New forecast layout! Learn more

10-Day Weather Forecast

Advertisements
Track Severe Weather on mobile